createdAt,value
2022-11-22T00:00:50.935Z,7.43
2022-11-22T00:03:19.235Z,7.87
2022-11-22T00:05:48.723Z,7.30
2022-11-22T00:08:16.556Z,8.40
2022-11-22T00:10:44.307Z,8.20
2022-11-22T00:13:12.102Z,8.30
2022-11-22T00:15:39.967Z,8.27
2022-11-22T00:18:08.319Z,8.60
2022-11-22T00:20:36.329Z,8.73
2022-11-22T00:23:06.321Z,9.20
2022-11-22T00:25:34.574Z,9.27
2022-11-22T00:28:02.419Z,8.73
2022-11-22T00:30:30.505Z,7.60
2022-11-22T00:32:58.283Z,7.50
2022-11-22T00:35:26.046Z,8.13
2022-11-22T00:37:53.943Z,8.73
2022-11-22T00:40:23.498Z,8.07
2022-11-22T00:42:51.445Z,8.00
2022-11-22T00:45:19.902Z,7.73
2022-11-22T00:47:47.881Z,8.33
2022-11-22T00:50:16.368Z,8.17
2022-11-22T00:52:44.278Z,7.73
2022-11-22T00:55:12.820Z,7.20
2022-11-22T00:57:42.208Z,7.20
2022-11-22T01:00:11.407Z,7.47
2022-11-22T01:02:39.272Z,7.70
2022-11-22T01:05:07.575Z,7.13
2022-11-22T01:07:35.408Z,7.00
2022-11-22T01:10:03.275Z,7.77
2022-11-22T01:12:31.515Z,6.80
2022-11-22T01:15:00.898Z,7.87
2022-11-22T01:17:29.377Z,7.20
2022-11-22T01:19:57.363Z,7.70
2022-11-22T01:22:25.258Z,7.40
2022-11-22T01:24:53.087Z,7.50
2022-11-22T01:27:21.116Z,6.50
2022-11-22T01:29:48.858Z,6.70
2022-11-22T01:32:18.260Z,7.10
2022-11-22T01:34:46.352Z,6.97
2022-11-22T01:37:15.751Z,7.00
2022-11-22T01:39:43.631Z,6.10
2022-11-22T01:42:12.030Z,6.70
2022-11-22T01:44:41.148Z,6.70
2022-11-22T01:47:11.744Z,6.13
2022-11-22T01:49:42.720Z,6.53
2022-11-22T01:52:13.249Z,6.90
2022-11-22T01:54:41.829Z,6.17
2022-11-22T01:57:11.747Z,6.40
2022-11-22T01:59:40.856Z,6.70
2022-11-22T02:02:08.829Z,6.30
2022-11-22T02:04:36.702Z,6.67
2022-11-22T02:07:08.409Z,5.70
2022-11-22T02:09:36.253Z,6.50
2022-11-22T02:12:06.307Z,6.40
2022-11-22T02:14:34.246Z,5.90
2022-11-22T02:17:02.143Z,6.50
2022-11-22T02:19:35.226Z,6.33
2022-11-22T02:22:05.288Z,6.77
2022-11-22T02:24:37.422Z,7.00
2022-11-22T02:27:06.958Z,5.80
2022-11-22T02:29:34.913Z,6.23
2022-11-22T02:32:03.044Z,6.37
2022-11-22T02:34:31.443Z,6.37
2022-11-22T02:36:59.620Z,6.43
2022-11-22T02:39:29.722Z,6.23
2022-11-22T02:41:57.860Z,6.00
2022-11-22T02:44:27.323Z,6.57
2022-11-22T02:46:56.106Z,6.37
2022-11-22T02:49:25.128Z,5.80
2022-11-22T02:51:53.148Z,5.83
2022-11-22T02:54:21.055Z,5.90
2022-11-22T02:56:48.809Z,6.10
2022-11-22T02:59:16.582Z,6.17
2022-11-22T03:01:46.474Z,6.87
2022-11-22T03:04:24.776Z,6.40
2022-11-22T03:06:56.828Z,5.93
2022-11-22T03:09:24.703Z,6.13
2022-11-22T03:11:53.207Z,6.80
2022-11-22T03:14:21.097Z,5.30
2022-11-22T03:16:50.527Z,5.73
2022-11-22T03:19:18.566Z,5.60
2022-11-22T03:21:46.620Z,5.73
2022-11-22T03:24:14.554Z,5.77
2022-11-22T03:26:42.888Z,5.63
2022-11-22T03:29:10.651Z,5.40
2022-11-22T03:31:40.180Z,5.13
2022-11-22T03:34:09.406Z,5.87
2022-11-22T03:36:37.532Z,5.90
2022-11-22T03:39:05.401Z,5.90
2022-11-22T03:41:33.184Z,6.07
2022-11-22T03:44:00.947Z,5.93
2022-11-22T03:46:28.697Z,5.90
2022-11-22T03:48:56.475Z,5.87
2022-11-22T03:51:25.630Z,6.20
2022-11-22T03:53:53.390Z,5.87
2022-11-22T03:56:21.175Z,5.60
2022-11-22T03:58:49.331Z,6.33
2022-11-22T04:01:17.240Z,5.97
2022-11-22T04:03:45.580Z,6.10
2022-11-22T04:06:13.477Z,5.53
2022-11-22T04:08:43.359Z,5.83
2022-11-22T04:11:12.280Z,5.50
2022-11-22T04:13:57.945Z,6.60
2022-11-22T04:16:25.981Z,6.60
2022-11-22T04:18:54.347Z,5.47
2022-11-22T04:21:36.643Z,5.97
2022-11-22T04:24:24.947Z,6.50
2022-11-22T04:26:52.793Z,6.00
2022-11-22T04:29:21.181Z,6.50
2022-11-22T04:32:06.560Z,6.50
2022-11-22T04:34:35.306Z,6.37
2022-11-22T04:37:03.143Z,5.77
2022-11-22T04:39:32.907Z,6.73
2022-11-22T04:42:18.686Z,6.40
2022-11-22T04:44:47.303Z,5.90
2022-11-22T04:47:39.042Z,6.40
2022-11-22T04:50:29.665Z,6.27
2022-11-22T04:52:57.586Z,6.83
2022-11-22T04:55:27.782Z,5.80
2022-11-22T04:57:59.476Z,6.53
2022-11-22T05:00:28.627Z,6.30
2022-11-22T05:02:56.550Z,7.23
2022-11-22T05:05:24.903Z,7.47
2022-11-22T05:07:52.789Z,6.50
2022-11-22T05:10:26.170Z,7.13
2022-11-22T05:12:55.912Z,6.40
2022-11-22T05:15:24.189Z,6.97
2022-11-22T05:17:52.223Z,5.97
2022-11-22T05:20:20.441Z,6.60
2022-11-22T05:23:05.792Z,7.03
2022-11-22T05:25:33.971Z,7.10
2022-11-22T05:28:03.666Z,6.60
2022-11-22T05:30:31.487Z,7.20
2022-11-22T05:32:59.727Z,7.43
2022-11-22T05:35:27.565Z,7.30
2022-11-22T05:37:57.227Z,6.50
2022-11-22T05:40:25.035Z,7.17
2022-11-22T05:42:53.210Z,6.70
2022-11-22T05:45:22.372Z,6.90
2022-11-22T05:47:50.164Z,6.87
2022-11-22T05:50:18.085Z,7.13
2022-11-22T05:52:46.356Z,7.00
2022-11-22T05:55:14.147Z,6.60
2022-11-22T05:57:42.300Z,7.03
2022-11-22T06:00:11.028Z,6.53
2022-11-22T06:02:40.732Z,6.60
2022-11-22T06:05:09.784Z,7.30
2022-11-22T06:07:38.513Z,7.10
2022-11-22T06:10:07.160Z,6.90
2022-11-22T06:12:35.272Z,7.47
2022-11-22T06:15:03.915Z,7.27
2022-11-22T06:17:31.940Z,7.80
2022-11-22T06:20:06.060Z,6.53
2022-11-22T06:22:34.699Z,6.90
2022-11-22T06:25:03.237Z,7.07
2022-11-22T06:27:31.397Z,7.10
2022-11-22T06:29:59.864Z,6.70
2022-11-22T06:32:28.104Z,6.53
2022-11-22T06:34:56.507Z,7.90
2022-11-22T06:37:26.064Z,6.60
2022-11-22T06:39:54.560Z,6.20
2022-11-22T06:42:22.616Z,6.60
2022-11-22T06:44:50.965Z,6.00
2022-11-22T06:47:19.057Z,6.90
2022-11-22T06:49:47.781Z,6.63
2022-11-22T06:52:15.788Z,6.70
2022-11-22T06:54:45.641Z,7.30
2022-11-22T06:57:14.650Z,6.37
2022-11-22T06:59:43.193Z,6.50
2022-11-22T07:02:12.487Z,6.80
2022-11-22T07:05:02.405Z,7.20
2022-11-22T07:07:28.528Z,6.80
2022-11-22T07:09:58.051Z,6.50
2022-11-22T07:12:26.513Z,6.30
2022-11-22T07:14:54.535Z,7.27
2022-11-22T07:17:22.650Z,6.67
2022-11-22T07:19:50.703Z,6.63
2022-11-22T07:22:19.113Z,5.93
2022-11-22T07:24:47.114Z,7.13
2022-11-22T07:27:17.456Z,6.70
2022-11-22T07:29:45.564Z,6.90
2022-11-22T07:32:14.062Z,6.50
2022-11-22T07:34:42.187Z,6.30
2022-11-22T07:37:10.761Z,7.03
2022-11-22T07:39:39.081Z,6.80
2022-11-22T07:42:07.215Z,6.13
2022-11-22T07:44:37.148Z,6.60
2022-11-22T07:47:05.331Z,6.00
2022-11-22T07:49:33.949Z,6.40
2022-11-22T07:52:02.028Z,6.30
2022-11-22T07:54:30.098Z,6.50
2022-11-22T07:56:58.123Z,6.43
2022-11-22T07:59:26.728Z,5.93
2022-11-22T08:01:56.094Z,6.30
2022-11-22T08:04:24.616Z,6.30
2022-11-22T08:06:52.715Z,5.77
2022-11-22T08:09:21.266Z,6.47
2022-11-22T08:11:49.327Z,6.97
2022-11-22T08:14:17.664Z,6.17
2022-11-22T08:16:45.650Z,6.63
2022-11-22T08:19:18.326Z,6.40
2022-11-22T08:21:46.357Z,6.33
2022-11-22T08:24:14.429Z,6.80
2022-11-22T08:26:42.255Z,6.30
2022-11-22T08:29:14.375Z,5.47
2022-11-22T08:31:42.513Z,6.67
2022-11-22T08:34:10.937Z,5.50
2022-11-22T08:36:40.496Z,6.13
2022-11-22T08:39:09.206Z,6.20
2022-11-22T08:41:37.484Z,6.10
2022-11-22T08:44:06.144Z,6.60
2022-11-22T08:46:34.013Z,6.40
2022-11-22T08:49:03.801Z,6.13
2022-11-22T08:51:32.202Z,7.20
2022-11-22T08:54:01.301Z,6.90
2022-11-22T08:56:29.640Z,6.77
2022-11-22T08:58:57.531Z,6.70
2022-11-22T09:01:25.872Z,6.83
2022-11-22T09:03:53.702Z,7.77
2022-11-22T09:11:59.032Z,7.20
2022-11-22T09:14:26.831Z,8.10
2022-11-22T09:16:55.174Z,8.23
2022-11-22T09:19:22.919Z,7.17
2022-11-22T09:21:50.667Z,8.33
2022-11-22T09:24:19.752Z,9.20
2022-11-22T09:26:48.054Z,8.50
2022-11-22T09:29:16.419Z,8.00
2022-11-22T09:31:44.561Z,8.03
2022-11-22T09:34:12.615Z,8.13
2022-11-22T09:36:41.103Z,8.33
2022-11-22T09:39:10.103Z,7.93
2022-11-22T09:42:06.580Z,8.50
2022-11-22T09:44:45.502Z,7.50
2022-11-22T09:47:19.000Z,7.90
2022-11-22T09:49:52.256Z,7.70
2022-11-22T09:52:24.262Z,7.50
2022-11-22T09:54:53.150Z,7.13
2022-11-22T09:57:24.138Z,7.23
2022-11-22T10:00:03.325Z,7.27
2022-11-22T10:02:43.479Z,6.73
2022-11-22T10:05:25.276Z,7.20
2022-11-22T10:07:56.784Z,7.50
2022-11-22T10:10:27.419Z,7.27
2022-11-22T10:12:58.501Z,6.97
2022-11-22T10:15:29.415Z,7.13
2022-11-22T10:17:58.150Z,6.57
2022-11-22T10:20:27.837Z,6.80
2022-11-22T10:22:55.655Z,6.77
2022-11-22T10:25:24.040Z,6.97
2022-11-22T10:28:11.782Z,8.00
2022-11-22T10:30:41.710Z,7.70
2022-11-22T10:33:13.297Z,7.77
2022-11-22T10:35:52.464Z,6.43
2022-11-22T10:38:46.915Z,8.07
2022-11-22T10:41:28.527Z,7.43
2022-11-22T10:44:04.509Z,7.70
2022-11-22T10:46:36.383Z,7.67
2022-11-22T10:49:07.119Z,7.20
2022-11-22T10:51:39.559Z,7.30
2022-11-22T10:54:15.609Z,7.60
2022-11-22T10:56:50.445Z,6.83
2022-11-22T10:59:34.527Z,6.43
2022-11-22T11:02:05.171Z,7.27
2022-11-22T11:04:33.617Z,7.40
2022-11-22T11:07:17.196Z,7.27
2022-11-22T11:10:10.314Z,7.07
2022-11-22T11:12:38.634Z,7.37
2022-11-22T11:15:15.934Z,6.77
2022-11-22T11:17:44.478Z,6.10
2022-11-22T11:20:17.226Z,6.23
2022-11-22T11:23:13.107Z,6.10
2022-11-22T11:25:34.750Z,6.80
2022-11-22T11:28:04.357Z,6.10
2022-11-22T11:30:40.998Z,6.13
2022-11-22T11:33:18.121Z,6.90
2022-11-22T11:35:46.504Z,6.80
2022-11-22T11:38:31.676Z,6.30
2022-11-22T11:41:00.408Z,6.80
2022-11-22T11:43:28.348Z,6.67
2022-11-22T11:46:05.438Z,6.20
2022-11-22T11:48:37.606Z,6.63
2022-11-22T11:51:10.134Z,6.60
2022-11-22T11:53:37.889Z,6.50
2022-11-22T11:56:30.156Z,5.27
2022-11-22T11:58:58.374Z,5.60
2022-11-22T12:01:27.764Z,5.13
2022-11-22T12:03:57.220Z,6.27
2022-11-22T12:06:29.322Z,6.10
2022-11-22T12:08:57.965Z,6.20
2022-11-22T12:11:31.859Z,5.73
2022-11-22T12:14:19.542Z,5.50
2022-11-22T12:16:50.127Z,5.30
2022-11-22T12:19:25.078Z,5.80
2022-11-22T12:21:58.656Z,6.03
2022-11-22T12:24:52.215Z,6.10
2022-11-22T12:27:16.392Z,5.80
2022-11-22T12:29:44.964Z,6.03
2022-11-22T12:32:17.132Z,5.30
2022-11-22T12:34:50.214Z,5.60
2022-11-22T12:37:18.678Z,5.27
2022-11-22T12:39:49.280Z,5.20
2022-11-22T12:42:22.995Z,5.30
2022-11-22T12:44:55.032Z,5.23
2022-11-22T12:47:26.816Z,5.10
2022-11-22T12:49:56.372Z,4.80
2022-11-22T12:52:25.284Z,5.10
2022-11-22T12:54:59.883Z,5.50
2022-11-22T12:57:33.820Z,5.70
2022-11-22T13:00:05.718Z,5.13
2022-11-22T13:02:37.887Z,5.60
2022-11-22T13:05:07.494Z,4.70
2022-11-22T13:07:44.906Z,5.10
2022-11-22T13:10:19.294Z,5.43
2022-11-22T13:12:47.310Z,5.17
2022-11-22T13:15:15.948Z,5.10
2022-11-22T13:17:45.432Z,4.53
2022-11-22T13:20:17.054Z,4.90
2022-11-22T13:22:49.814Z,4.90
2022-11-22T13:25:32.637Z,5.20
2022-11-22T13:28:01.533Z,5.07
2022-11-22T13:30:31.105Z,5.17
2022-11-22T13:33:01.375Z,5.13
2022-11-22T13:35:32.413Z,4.80
2022-11-22T13:38:02.684Z,4.97
2022-11-22T13:40:31.713Z,4.70
2022-11-22T13:43:54.889Z,4.93
2022-11-22T13:46:57.214Z,4.90
2022-11-22T13:49:37.978Z,4.60
2022-11-22T13:52:29.927Z,4.50
2022-11-22T13:55:03.283Z,4.50
2022-11-22T13:57:35.715Z,4.60
2022-11-22T14:00:46.380Z,4.77
2022-11-22T14:03:37.634Z,4.40
2022-11-22T14:06:29.166Z,4.07
2022-11-22T14:09:28.152Z,4.50
2022-11-22T14:12:13.122Z,4.93
2022-11-22T14:14:43.457Z,4.97
2022-11-22T14:17:15.673Z,4.20
2022-11-22T14:19:52.503Z,4.80
2022-11-22T14:22:26.566Z,4.20
2022-11-22T14:25:05.350Z,4.20
2022-11-22T14:27:37.962Z,4.90
2022-11-22T14:30:09.619Z,4.27
2022-11-22T14:32:43.178Z,4.50
2022-11-22T14:35:29.184Z,4.40
2022-11-22T14:38:21.040Z,4.70
2022-11-22T14:40:49.462Z,4.10
2022-11-22T14:43:29.418Z,4.80
2022-11-22T14:46:00.991Z,5.00
2022-11-22T14:48:31.867Z,4.10
2022-11-22T14:51:03.331Z,4.60
2022-11-22T14:53:35.896Z,4.40
2022-11-22T14:56:16.699Z,4.43
2022-11-22T14:58:59.291Z,4.53
2022-11-22T15:01:40.643Z,4.43
2022-11-22T15:09:10.288Z,4.87
2022-11-22T15:09:14.903Z,4.40
2022-11-22T15:11:26.449Z,4.93
2022-11-22T15:14:10.336Z,4.80
2022-11-22T15:57:30.059Z,5.20
2022-11-22T15:59:57.731Z,4.33
2022-11-22T16:02:30.244Z,4.30
2022-11-22T16:06:06.459Z,5.20
2022-11-22T16:07:49.502Z,4.80
2022-11-22T16:10:20.389Z,4.70
2022-11-22T16:12:48.531Z,4.00
2022-11-22T16:15:28.258Z,4.20
2022-11-22T16:18:02.933Z,4.60
2022-11-22T16:20:32.730Z,4.70
2022-11-22T16:23:25.061Z,4.17
2022-11-22T16:25:55.502Z,4.47
2022-11-22T16:28:28.148Z,4.43
2022-11-22T16:30:57.521Z,4.83
2022-11-22T16:33:27.084Z,3.97
2022-11-22T16:35:56.175Z,4.00
2022-11-22T16:38:24.428Z,4.67
2022-11-22T16:40:52.368Z,4.47
2022-11-22T16:43:21.942Z,4.40
2022-11-22T16:45:50.051Z,4.90
2022-11-22T16:48:34.586Z,4.70
2022-11-22T16:51:07.673Z,4.53
2022-11-22T16:53:39.591Z,4.50
2022-11-22T16:56:08.113Z,4.57
2022-11-22T16:58:36.492Z,4.20
2022-11-22T17:01:04.512Z,4.53
2022-11-22T17:03:33.854Z,4.47
2022-11-22T17:06:01.796Z,4.60
2022-11-22T17:08:31.441Z,5.33
2022-11-22T17:10:59.899Z,4.43
2022-11-22T17:13:28.500Z,4.17
2022-11-22T17:15:57.086Z,4.10
2022-11-22T17:18:25.426Z,4.50
2022-11-22T17:20:53.437Z,4.63
2022-11-22T17:23:23.867Z,4.40
2022-11-22T17:25:53.548Z,5.40
2022-11-22T17:28:21.535Z,4.80
2022-11-22T17:30:49.866Z,4.50
2022-11-22T17:33:17.782Z,4.23
2022-11-22T17:35:45.810Z,3.83
2022-11-22T17:38:13.745Z,4.97
2022-11-22T17:40:41.668Z,4.50
2022-11-22T17:43:11.260Z,3.90
2022-11-22T17:45:42.974Z,3.93
2022-11-22T17:48:11.000Z,3.90
2022-11-22T17:50:40.534Z,4.40
2022-11-22T17:53:08.358Z,4.37
2022-11-22T17:56:02.720Z,4.60
2022-11-22T17:58:25.528Z,3.53
2022-11-22T18:00:53.591Z,3.93
2022-11-22T18:03:21.587Z,4.43
2022-11-22T18:05:49.649Z,4.40
2022-11-22T18:08:17.533Z,4.00
2022-11-22T18:10:45.700Z,4.27
2022-11-22T18:13:21.425Z,4.47
2022-11-22T18:15:52.932Z,4.30
2022-11-22T18:18:48.450Z,4.30
2022-11-22T18:21:14.068Z,4.73
2022-11-22T18:23:45.516Z,4.70
2022-11-22T18:31:52.512Z,5.50
2022-11-22T18:34:21.054Z,5.60
2022-11-22T18:36:55.261Z,5.50
2022-11-22T18:39:23.773Z,5.17
2022-11-22T18:41:51.692Z,4.57
2022-11-22T18:44:19.712Z,4.90
2022-11-22T18:46:47.975Z,5.20
2022-11-22T18:49:17.447Z,4.90
2022-11-22T18:51:45.260Z,5.20
2022-11-22T18:54:13.755Z,5.20
2022-11-22T18:56:41.533Z,5.20
2022-11-22T18:59:12.788Z,5.07
2022-11-22T19:01:41.101Z,4.73
2022-11-22T19:04:09.217Z,4.60
2022-11-22T19:06:38.708Z,4.90
2022-11-22T19:09:07.090Z,5.10
2022-11-22T19:11:35.489Z,5.03
2022-11-22T19:14:03.519Z,5.00
2022-11-22T19:16:31.577Z,4.50
2022-11-22T19:18:59.489Z,4.40
2022-11-22T19:21:28.890Z,4.93
2022-11-22T19:23:58.336Z,4.53
2022-11-22T19:26:27.302Z,4.73
2022-11-22T19:28:56.293Z,4.83
2022-11-22T19:31:25.744Z,4.77
2022-11-22T19:33:53.668Z,5.20
2022-11-22T19:36:26.406Z,4.80
2022-11-22T19:39:00.121Z,4.40
2022-11-22T19:41:28.565Z,4.97
2022-11-22T19:43:56.994Z,4.67
2022-11-22T19:46:25.077Z,5.03
2022-11-22T19:48:53.119Z,4.40
2022-11-22T19:51:21.353Z,4.70
2022-11-22T19:53:49.772Z,4.90
2022-11-22T19:56:19.701Z,4.57
2022-11-22T19:58:51.087Z,5.30
2022-11-22T20:01:19.368Z,5.20
2022-11-22T20:03:47.660Z,4.80
2022-11-22T20:06:15.670Z,5.27
2022-11-22T20:08:44.283Z,5.50
2022-11-22T20:11:13.118Z,5.50
2022-11-22T20:13:43.761Z,5.53
2022-11-22T20:16:13.580Z,4.33
2022-11-22T20:18:41.602Z,4.67
2022-11-22T20:21:10.009Z,5.07
2022-11-22T20:23:38.406Z,5.80
2022-11-22T20:26:09.237Z,5.10
2022-11-22T20:28:37.240Z,4.90
2022-11-22T20:31:07.870Z,4.93
2022-11-22T20:33:36.009Z,5.20
2022-11-22T20:36:05.335Z,5.00
2022-11-22T20:38:34.144Z,5.50
2022-11-22T20:41:02.205Z,5.60
2022-11-22T20:43:31.552Z,5.33
2022-11-22T20:46:02.916Z,5.43
2022-11-22T20:48:32.272Z,4.93
2022-11-22T20:51:00.134Z,5.50
2022-11-22T20:53:28.143Z,4.87
2022-11-22T20:55:56.268Z,4.80
2022-11-22T20:58:25.933Z,4.87
2022-11-22T21:00:53.924Z,5.07
2022-11-22T21:03:22.332Z,4.60
2022-11-22T21:05:53.401Z,4.90
2022-11-22T21:08:21.152Z,5.70
2022-11-22T21:10:48.846Z,5.53
2022-11-22T21:13:18.621Z,5.20
2022-11-22T21:15:46.699Z,5.30
2022-11-22T21:18:25.056Z,5.07
2022-11-22T21:20:55.161Z,5.23
2022-11-22T21:23:22.990Z,5.40
2022-11-22T21:25:51.779Z,4.70
2022-11-22T21:28:20.136Z,4.60
2022-11-22T21:30:48.021Z,4.50
2022-11-22T21:33:15.979Z,5.47
2022-11-22T21:35:45.767Z,4.80
2022-11-22T21:38:15.753Z,5.43
2022-11-22T21:40:51.052Z,5.13
2022-11-22T21:43:19.336Z,5.20
2022-11-22T21:45:47.218Z,5.20
2022-11-22T21:48:15.121Z,4.87
2022-11-22T21:50:43.174Z,4.67
2022-11-22T21:53:11.613Z,5.00
2022-11-22T21:55:48.738Z,5.07
2022-11-22T21:58:16.714Z,5.57
2022-11-22T22:00:45.237Z,4.90
2022-11-22T22:03:13.469Z,4.60
2022-11-22T22:05:41.395Z,5.50
2022-11-22T22:08:09.336Z,5.03
2022-11-22T22:10:37.281Z,5.00
2022-11-22T22:13:06.587Z,4.83
2022-11-22T22:15:34.541Z,5.10
2022-11-22T22:18:03.553Z,4.63
2022-11-22T22:20:31.452Z,4.60
2022-11-22T22:22:59.376Z,4.93
2022-11-22T22:25:27.250Z,5.13
2022-11-22T22:27:56.880Z,4.77
2022-11-22T22:30:26.194Z,4.50
2022-11-22T22:32:54.151Z,5.50
2022-11-22T22:35:23.165Z,5.50
2022-11-22T22:37:51.023Z,4.90
2022-11-22T22:40:18.978Z,4.87
2022-11-22T22:42:46.969Z,4.70
2022-11-22T22:45:15.447Z,5.10
2022-11-22T22:47:46.231Z,5.47
2022-11-22T22:50:14.457Z,4.40
2022-11-22T22:52:42.420Z,4.03
2022-11-22T22:55:10.813Z,4.73
2022-11-22T22:57:39.073Z,4.73
2022-11-22T23:00:07.963Z,4.20
2022-11-22T23:02:36.858Z,4.80
2022-11-22T23:05:07.077Z,4.80
2022-11-22T23:07:34.816Z,4.13
2022-11-22T23:10:02.533Z,5.73
2022-11-22T23:12:30.298Z,6.70
2022-11-22T23:14:57.994Z,7.30
2022-11-22T23:17:26.273Z,7.83
2022-11-22T23:19:54.143Z,8.53
2022-11-22T23:22:25.918Z,7.33
2022-11-22T23:24:54.120Z,7.80
2022-11-22T23:27:22.499Z,8.60
2022-11-22T23:29:50.416Z,7.47
2022-11-22T23:32:18.419Z,7.23
2022-11-22T23:34:46.646Z,7.23
2022-11-22T23:37:14.378Z,6.77
2022-11-22T23:39:44.089Z,6.73
2022-11-22T23:42:12.134Z,7.00
2022-11-22T23:44:40.107Z,6.83
2022-11-22T23:47:08.327Z,7.03
2022-11-22T23:49:36.420Z,6.83
2022-11-22T23:52:04.287Z,6.87
2022-11-22T23:54:32.765Z,7.10
2022-11-22T23:57:02.252Z,6.93
2022-11-22T23:59:30.410Z,6.13
